Time;durP1;ratioP1;P1;durP2;ratioP2;P2;SDS_P1;SDS_P2;PMS_P1;PMS_P2;Temp;Humidity;BMP_temperature;BMP_pressure;BME280_temperature;BME280_humidity;BME280_pressure;Samples;Min_cycle;Max_cycle;Signal;HPM_P1;HPM_P2
2020/12/12 00:00:24;;;;;;;;;;;3.20;99.90;;;;;;5033020;28;19949;-72
2020/12/12 00:02:50;;;;;;;;;;;3.20;99.90;;;;;;5032832;28;19909;-73
2020/12/12 00:05:15;;;;;;;;;;;3.30;99.90;;;;;;5031630;28;20000;-73
2020/12/12 00:07:41;;;;;;;;;;;3.30;99.90;;;;;;5031043;28;19947;-76
2020/12/12 00:10:06;;;;;;;;;;;3.30;99.90;;;;;;5031395;28;19913;-73
2020/12/12 00:12:32;;;;;;;;;;;3.30;99.90;;;;;;5032594;28;20003;-72
2020/12/12 00:14:57;;;;;;;;;;;3.30;99.90;;;;;;5032612;28;19909;-74
2020/12/12 00:17:23;;;;;;;;;;;3.30;99.90;;;;;;5032504;28;20390;-72
2020/12/12 00:19:48;;;;;;;;;;;3.30;99.90;;;;;;5032704;28;19949;-75
2020/12/12 00:22:14;;;;;;;;;;;3.20;99.90;;;;;;5032490;28;19916;-72
2020/12/12 00:24:39;;;;;;;;;;;3.30;99.90;;;;;;5032341;28;19952;-76
2020/12/12 00:27:05;;;;;;;;;;;3.30;99.90;;;;;;5016785;28;19916;-72
2020/12/12 00:29:30;;;;;;;;;;;3.30;99.90;;;;;;5012856;28;19997;-73
2020/12/12 00:31:57;;;;;;;;;;;3.30;99.90;;;;;;5012654;28;20298;-73
2020/12/12 00:34:23;;;;;;;;;;;3.30;99.90;;;;;;5012758;28;19913;-74
2020/12/12 00:36:49;;;;;;;;;;;3.30;99.90;;;;;;5012217;28;19909;-73
2020/12/12 00:39:15;;;;;;;;;;;3.40;99.90;;;;;;5012615;28;20059;-73
2020/12/12 00:41:41;;;;;;;;;;;3.40;99.90;;;;;;5012463;28;20000;-73
2020/12/12 00:44:07;;;;;;;;;;;3.40;99.90;;;;;;5012448;28;20003;-73
2020/12/12 00:46:34;;;;;;;;;;;3.40;99.90;;;;;;5012204;28;19910;-74
2020/12/12 00:49:00;;;;;;;;;;;3.40;99.90;;;;;;5012608;28;20282;-73
2020/12/12 00:51:25;;;;;;;;;;;3.40;99.90;;;;;;5012068;28;19910;-72
2020/12/12 00:53:51;;;;;;;;;;;3.40;99.90;;;;;;5012619;28;19910;-73
2020/12/12 00:56:16;;;;;;;;;;;3.50;99.90;;;;;;5030185;28;19909;-76
2020/12/12 00:58:42;;;;;;;;;;;3.50;99.90;;;;;;5021380;28;19936;-73
2020/12/12 01:01:08;;;;;;;;;;;3.50;99.90;;;;;;5020239;28;20309;-73
2020/12/12 01:03:34;;;;;;;;;;;3.50;99.90;;;;;;5016842;28;19917;-72
2020/12/12 01:05:59;;;;;;;;;;;3.50;99.90;;;;;;5011538;28;19910;-73
2020/12/12 01:08:25;;;;;;;;;;;3.40;99.90;;;;;;5010398;28;19970;-74
2020/12/12 01:10:51;;;;;;;;;;;3.30;99.90;;;;;;5008810;28;19916;-75
2020/12/12 01:13:17;;;;;;;;;;;3.30;99.90;;;;;;5008689;28;20000;-76
2020/12/12 01:15:42;;;;;;;;;;;3.40;99.90;;;;;;5007164;28;20431;-73
2020/12/12 01:18:08;;;;;;;;;;;3.40;99.90;;;;;;5008560;28;19909;-73
2020/12/12 01:20:33;;;;;;;;;;;3.40;99.90;;;;;;5007076;28;19936;-73
2020/12/12 01:22:59;;;;;;;;;;;3.40;99.90;;;;;;5007881;28;19909;-77
2020/12/12 01:25:24;;;;;;;;;;;3.40;99.90;;;;;;5011215;28;19910;-73
2020/12/12 01:27:50;;;;;;;;;;;3.40;99.90;;;;;;5011461;28;20351;-73
2020/12/12 01:30:16;;;;;;;;;;;3.40;99.90;;;;;;5011802;28;20634;-73
2020/12/12 01:32:41;;;;;;;;;;;3.50;99.90;;;;;;5011616;28;20006;-75
2020/12/12 01:35:07;;;;;;;;;;;3.40;99.90;;;;;;5011433;28;19909;-73
2020/12/12 01:37:32;;;;;;;;;;;3.40;99.90;;;;;;5011268;28;19913;-73
2020/12/12 01:39:57;;;;;;;;;;;3.30;99.90;;;;;;5011434;28;19960;-73
2020/12/12 01:42:23;;;;;;;;;;;3.30;99.90;;;;;;5011570;28;19909;-73
2020/12/12 01:44:54;;;;;;;;;;;3.30;99.90;;;;;;5011654;28;19909;-73
2020/12/12 01:47:19;;;;;;;;;;;3.30;99.90;;;;;;5011232;28;19915;-73
2020/12/12 01:49:44;;;;;;;;;;;3.30;99.90;;;;;;5011303;28;20012;-73
2020/12/12 01:52:10;;;;;;;;;;;3.20;99.90;;;;;;5011378;28;19956;-73
2020/12/12 01:54:35;;;;;;;;;;;3.10;99.90;;;;;;5012200;28;19961;-75
2020/12/12 01:57:02;;;;;;;;;;;3.20;99.90;;;;;;5010865;28;20295;-73
2020/12/12 01:59:29;;;;;;;;;;;3.20;99.90;;;;;;5011274;28;19913;-73
2020/12/12 02:01:55;;;;;;;;;;;3.20;99.90;;;;;;5011247;28;19920;-73
2020/12/12 02:04:22;;;;;;;;;;;3.20;99.90;;;;;;5011300;28;19917;-73
2020/12/12 02:06:47;;;;;;;;;;;3.20;99.90;;;;;;5011095;28;19909;-73
2020/12/12 02:09:14;;;;;;;;;;;3.30;99.90;;;;;;5011242;28;19916;-73
2020/12/12 02:11:40;;;;;;;;;;;3.30;99.90;;;;;;5011263;28;20469;-73
2020/12/12 02:14:09;;;;;;;;;;;3.30;99.90;;;;;;5008891;28;20285;-74
2020/12/12 02:16:49;;;;;;;;;;;3.30;99.90;;;;;;5011027;28;19941;-74
2020/12/12 02:19:15;;;;;;;;;;;3.40;99.90;;;;;;5011138;28;20004;-73
2020/12/12 02:21:40;;;;;;;;;;;3.40;99.90;;;;;;5011097;28;19945;-76
2020/12/12 02:24:06;;;;;;;;;;;3.30;99.90;;;;;;5011015;28;19914;-73
2020/12/12 02:26:31;;;;;;;;;;;3.40;99.90;;;;;;5011350;28;20362;-73
2020/12/12 02:28:56;;;;;;;;;;;3.40;99.90;;;;;;5011172;28;19917;-75
2020/12/12 02:31:25;;;;;;;;;;;3.40;99.90;;;;;;5010822;28;19909;-73
2020/12/12 02:33:51;;;;;;;;;;;3.40;99.90;;;;;;5010926;28;20338;-74
2020/12/12 02:36:16;;;;;;;;;;;3.40;99.90;;;;;;5012531;28;19959;-73
2020/12/12 02:38:42;;;;;;;;;;;3.40;99.90;;;;;;5014449;28;19972;-73
2020/12/12 02:41:08;;;;;;;;;;;3.40;99.90;;;;;;5014404;28;19953;-73
2020/12/12 02:43:33;;;;;;;;;;;3.40;99.90;;;;;;5014779;28;19955;-73
2020/12/12 02:45:59;;;;;;;;;;;3.40;99.90;;;;;;5013897;28;19913;-74
2020/12/12 02:48:24;;;;;;;;;;;3.40;99.90;;;;;;5014393;28;19952;-73
2020/12/12 02:50:50;;;;;;;;;;;3.40;99.90;;;;;;5014559;28;20278;-74
2020/12/12 02:53:15;;;;;;;;;;;3.40;99.90;;;;;;5014108;28;20008;-74
2020/12/12 02:55:41;;;;;;;;;;;3.40;99.90;;;;;;5014558;28;19916;-76
2020/12/12 02:58:06;;;;;;;;;;;3.40;99.90;;;;;;5012894;28;19983;-73
2020/12/12 03:00:32;;;;;;;;;;;3.40;99.90;;;;;;5014086;28;19914;-73
2020/12/12 03:02:57;;;;;;;;;;;3.40;99.90;;;;;;5014018;28;20017;-74
2020/12/12 03:05:23;;;;;;;;;;;3.40;99.90;;;;;;5013958;28;19916;-73
2020/12/12 03:07:48;;;;;;;;;;;3.40;99.90;;;;;;5013618;28;19909;-73
2020/12/12 03:10:14;;;;;;;;;;;3.40;99.90;;;;;;5013996;28;20363;-73
2020/12/12 03:12:39;;;;;;;;;;;3.40;99.90;;;;;;5013903;28;19910;-75
2020/12/12 03:15:09;;;;;;;;;;;3.40;99.90;;;;;;5013822;28;19913;-73
2020/12/12 03:17:34;;;;;;;;;;;3.40;99.90;;;;;;5012475;28;19945;-73
2020/12/12 03:20:00;;;;;;;;;;;3.40;99.90;;;;;;5013825;28;20397;-75
2020/12/12 03:22:25;;;;;;;;;;;3.40;99.90;;;;;;5013520;28;19909;-73
2020/12/12 03:24:51;;;;;;;;;;;3.40;99.90;;;;;;5014384;28;20004;-73
2020/12/12 03:27:16;;;;;;;;;;;3.40;99.90;;;;;;5012972;28;19913;-73
2020/12/12 03:29:42;;;;;;;;;;;3.40;99.90;;;;;;5013473;28;19963;-76
2020/12/12 03:32:08;;;;;;;;;;;3.40;99.90;;;;;;5013556;28;19948;-73
2020/12/12 03:34:34;;;;;;;;;;;3.40;99.90;;;;;;5013631;28;19921;-73
2020/12/12 03:36:59;;;;;;;;;;;3.50;99.90;;;;;;5013032;28;19910;-73
2020/12/12 03:39:25;;;;;;;;;;;3.50;99.90;;;;;;5013398;28;19918;-73
2020/12/12 03:41:50;;;;;;;;;;;3.50;99.90;;;;;;5013386;28;20318;-74
2020/12/12 03:44:16;;;;;;;;;;;3.50;99.90;;;;;;5013267;28;19914;-75
2020/12/12 03:46:41;;;;;;;;;;;3.50;99.90;;;;;;5012483;28;19914;-73
2020/12/12 03:49:07;;;;;;;;;;;3.40;99.90;;;;;;5011763;28;19920;-74
2020/12/12 03:51:32;;;;;;;;;;;3.40;99.90;;;;;;5013082;28;19916;-76
2020/12/12 03:53:58;;;;;;;;;;;3.40;99.90;;;;;;5011953;28;19929;-73
2020/12/12 03:56:24;;;;;;;;;;;3.50;99.90;;;;;;5013376;28;19916;-73
2020/12/12 03:58:50;;;;;;;;;;;3.50;99.90;;;;;;5011670;28;19909;-73
2020/12/12 04:01:15;;;;;;;;;;;3.50;99.90;;;;;;5012938;28;20374;-74
2020/12/12 04:03:40;;;;;;;;;;;3.60;99.90;;;;;;5012895;28;20000;-76
2020/12/12 04:06:06;;;;;;;;;;;3.60;99.90;;;;;;5012537;28;20277;-73
2020/12/12 04:08:31;;;;;;;;;;;3.60;99.90;;;;;;5011673;28;19910;-73
2020/12/12 04:10:59;;;;;;;;;;;3.70;99.90;;;;;;5012767;28;19913;-74
2020/12/12 04:13:25;;;;;;;;;;;3.70;99.90;;;;;;5012455;28;20275;-75
2020/12/12 04:15:50;;;;;;;;;;;3.70;99.90;;;;;;5012429;28;19950;-73
2020/12/12 04:18:15;;;;;;;;;;;3.70;99.90;;;;;;5012486;28;19936;-74
2020/12/12 04:20:41;;;;;;;;;;;3.70;99.90;;;;;;5012488;28;19914;-75
2020/12/12 04:23:06;;;;;;;;;;;3.70;99.90;;;;;;5012464;28;20381;-73
2020/12/12 04:25:32;;;;;;;;;;;3.70;99.90;;;;;;5013246;28;19909;-75
2020/12/12 04:27:57;;;;;;;;;;;3.80;99.90;;;;;;5012119;28;19915;-74
2020/12/12 04:30:23;;;;;;;;;;;3.80;99.90;;;;;;5012417;28;20024;-73
2020/12/12 04:32:48;;;;;;;;;;;3.80;99.90;;;;;;5012381;28;19909;-73
2020/12/12 04:35:14;;;;;;;;;;;3.70;99.90;;;;;;5012202;28;20370;-74
2020/12/12 04:37:39;;;;;;;;;;;3.70;99.90;;;;;;5012063;28;19997;-73
2020/12/12 04:40:05;;;;;;;;;;;3.70;99.90;;;;;;5011063;28;19914;-73
2020/12/12 04:42:33;;;;;;;;;;;3.70;99.90;;;;;;5012122;28;20392;-73
2020/12/12 04:44:59;;;;;;;;;;;3.70;99.90;;;;;;5012134;28;19917;-73
2020/12/12 04:47:25;;;;;;;;;;;3.60;99.90;;;;;;5011792;28;19909;-73
2020/12/12 04:49:50;;;;;;;;;;;3.60;99.90;;;;;;5012018;28;19967;-74
2020/12/12 04:52:17;;;;;;;;;;;3.60;99.90;;;;;;5011892;28;20314;-73
2020/12/12 04:54:46;;;;;;;;;;;3.60;99.90;;;;;;5012801;28;20322;-73
2020/12/12 04:57:11;;;;;;;;;;;3.60;99.90;;;;;;5010603;28;19916;-73
2020/12/12 04:59:40;;;;;;;;;;;3.60;99.90;;;;;;5010528;28;19914;-74
2020/12/12 05:02:06;;;;;;;;;;;3.60;99.90;;;;;;5011903;28;19913;-75
2020/12/12 05:04:31;;;;;;;;;;;3.60;99.90;;;;;;5011847;28;19917;-73
2020/12/12 05:06:57;;;;;;;;;;;3.60;99.90;;;;;;5011553;28;19964;-73
2020/12/12 05:09:22;;;;;;;;;;;3.60;99.90;;;;;;5011819;28;19909;-73
2020/12/12 05:11:48;;;;;;;;;;;3.60;99.90;;;;;;5011613;28;19910;-73
2020/12/12 05:14:14;;;;;;;;;;;3.70;99.90;;;;;;5011937;28;19906;-74
2020/12/12 05:16:40;;;;;;;;;;;3.70;99.90;;;;;;5010047;28;19992;-73
2020/12/12 05:19:06;;;;;;;;;;;3.70;99.90;;;;;;5011632;28;20017;-73
2020/12/12 05:21:31;;;;;;;;;;;3.70;99.90;;;;;;5011672;28;20342;-74
2020/12/12 05:24:00;;;;;;;;;;;3.70;99.90;;;;;;5011652;28;20324;-73
2020/12/12 05:26:28;;;;;;;;;;;3.80;99.90;;;;;;5011624;28;19910;-73
2020/12/12 05:28:56;;;;;;;;;;;3.80;99.90;;;;;;5011649;28;19967;-74
2020/12/12 05:31:21;;;;;;;;;;;3.80;99.90;;;;;;5011531;28;19948;-74
2020/12/12 05:33:47;;;;;;;;;;;3.80;99.90;;;;;;5010433;28;19917;-75
2020/12/12 05:36:12;;;;;;;;;;;3.80;99.90;;;;;;5011075;28;19909;-73
2020/12/12 05:38:38;;;;;;;;;;;3.80;99.90;;;;;;5011300;28;19909;-73
2020/12/12 05:41:04;;;;;;;;;;;3.80;99.90;;;;;;5010345;28;20327;-73
2020/12/12 05:43:32;;;;;;;;;;;3.80;99.90;;;;;;5010194;28;19948;-73
2020/12/12 05:45:59;;;;;;;;;;;3.80;99.90;;;;;;5011922;28;20331;-74
2020/12/12 05:48:25;;;;;;;;;;;3.80;99.90;;;;;;5011352;28;19939;-74
2020/12/12 05:50:50;;;;;;;;;;;3.80;99.90;;;;;;5011281;28;19925;-73
2020/12/12 05:53:16;;;;;;;;;;;3.80;99.90;;;;;;5011249;28;19975;-74
2020/12/12 05:55:44;;;;;;;;;;;3.80;99.90;;;;;;5011523;28;19916;-74
2020/12/12 05:58:10;;;;;;;;;;;3.80;99.90;;;;;;5011201;28;19916;-73
2020/12/12 06:00:35;;;;;;;;;;;3.80;99.90;;;;;;5011110;28;19913;-76
2020/12/12 06:03:04;;;;;;;;;;;3.80;99.90;;;;;;5011112;28;19910;-73
2020/12/12 06:05:30;;;;;;;;;;;3.80;99.90;;;;;;5011113;28;19913;-73
2020/12/12 06:07:59;;;;;;;;;;;3.80;99.90;;;;;;5009549;28;19917;-76
2020/12/12 06:10:26;;;;;;;;;;;3.90;99.90;;;;;;5014825;28;19909;-73
2020/12/12 06:12:55;;;;;;;;;;;3.90;99.90;;;;;;5015067;28;19916;-75
2020/12/12 06:15:30;;;;;;;;;;;3.90;99.90;;;;;;5013627;28;19909;-74
2020/12/12 06:18:04;;;;;;;;;;;3.90;99.90;;;;;;5014589;28;19910;-74
2020/12/12 06:20:30;;;;;;;;;;;3.90;99.90;;;;;;5014574;28;19920;-75
2020/12/12 06:22:56;;;;;;;;;;;3.80;99.90;;;;;;5014667;28;20378;-73
2020/12/12 06:25:22;;;;;;;;;;;3.80;99.90;;;;;;5025036;28;20271;-73
2020/12/12 06:27:51;;;;;;;;;;;3.80;99.90;;;;;;5034189;28;20278;-76
2020/12/12 06:30:16;;;;;;;;;;;3.80;99.90;;;;;;5034524;28;19959;-74
2020/12/12 06:32:42;;;;;;;;;;;3.80;99.90;;;;;;5034339;28;19913;-75
2020/12/12 06:35:07;;;;;;;;;;;3.80;99.90;;;;;;5034398;28;19916;-74
2020/12/12 06:37:34;;;;;;;;;;;3.80;99.90;;;;;;5033917;28;19909;-74
2020/12/12 06:40:01;;;;;;;;;;;3.80;99.90;;;;;;5034575;28;19913;-73
2020/12/12 06:42:28;;;;;;;;;;;3.70;99.90;;;;;;5034176;28;20018;-74
2020/12/12 06:44:54;;;;;;;;;;;3.70;99.90;;;;;;5034232;28;19913;-73
2020/12/12 06:47:33;;;;;;;;;;;3.70;99.90;;;;;;5033850;28;19920;-74
2020/12/12 06:50:10;;;;;;;;;;;3.70;99.90;;;;;;5034127;28;19923;-74
2020/12/12 06:52:35;;;;;;;;;;;3.70;99.90;;;;;;5034080;28;19955;-74
2020/12/12 06:55:03;;;;;;;;;;;3.70;99.90;;;;;;5027470;28;19910;-74
2020/12/12 06:57:56;;;;;;;;;;;3.70;99.90;;;;;;5013695;28;20370;-75
2020/12/12 07:00:18;;;;;;;;;;;3.70;99.90;;;;;;5013674;28;19913;-77
2020/12/12 07:02:53;;;;;;;;;;;3.70;99.90;;;;;;5013939;28;20013;-74
2020/12/12 07:05:22;;;;;;;;;;;3.70;99.90;;;;;;5014085;28;19910;-74
2020/12/12 07:07:47;;;;;;;;;;;3.70;99.90;;;;;;5013652;28;19932;-74
2020/12/12 07:10:13;;;;;;;;;;;3.70;99.90;;;;;;5012708;28;19910;-76
2020/12/12 07:12:39;;;;;;;;;;;3.70;99.90;;;;;;5013746;28;19916;-74
2020/12/12 07:15:05;;;;;;;;;;;3.70;99.90;;;;;;5012689;28;20326;-73
2020/12/12 07:17:31;;;;;;;;;;;3.70;99.90;;;;;;5013476;28;19910;-73
2020/12/12 07:19:57;;;;;;;;;;;3.80;99.90;;;;;;5012051;28;20638;-74
2020/12/12 07:22:23;;;;;;;;;;;3.80;99.90;;;;;;5013474;28;19957;-73
2020/12/12 07:24:48;;;;;;;;;;;3.80;99.90;;;;;;5014441;28;19952;-73
2020/12/12 07:27:14;;;;;;;;;;;3.80;99.90;;;;;;5021213;28;20428;-74
2020/12/12 07:29:39;;;;;;;;;;;3.90;99.90;;;;;;5033431;28;19916;-73
2020/12/12 07:32:04;;;;;;;;;;;3.90;99.90;;;;;;5033333;28;19936;-73
2020/12/12 07:34:30;;;;;;;;;;;3.90;99.90;;;;;;5033333;28;19909;-74
2020/12/12 07:37:05;;;;;;;;;;;3.80;99.90;;;;;;5021497;28;20306;-76
2020/12/12 07:39:35;;;;;;;;;;;3.90;99.90;;;;;;5031015;28;19999;-73
2020/12/12 07:42:02;;;;;;;;;;;3.90;99.90;;;;;;5033028;28;19913;-73
2020/12/12 07:44:30;;;;;;;;;;;3.90;99.90;;;;;;5032599;28;20373;-75
2020/12/12 07:47:00;;;;;;;;;;;3.90;99.90;;;;;;5032541;28;19915;-75
2020/12/12 07:49:26;;;;;;;;;;;3.90;99.90;;;;;;5032966;28;20146;-73
2020/12/12 07:52:00;;;;;;;;;;;4.00;99.90;;;;;;5032781;28;20366;-74
2020/12/12 07:54:30;;;;;;;;;;;4.00;99.90;;;;;;5031019;28;19959;-73
2020/12/12 07:56:56;;;;;;;;;;;4.10;99.90;;;;;;5011376;28;20241;-73
2020/12/12 07:59:21;;;;;;;;;;;4.10;99.90;;;;;;5013101;28;20453;-73
2020/12/12 08:01:47;;;;;;;;;;;4.10;99.90;;;;;;5015164;28;19921;-75
2020/12/12 08:04:22;;;;;;;;;;;4.20;99.90;;;;;;5011752;28;20421;-74
2020/12/12 08:06:48;;;;;;;;;;;4.20;99.90;;;;;;5012568;28;19909;-73
2020/12/12 08:09:20;;;;;;;;;;;4.20;99.90;;;;;;5012967;28;19967;-73
2020/12/12 08:11:53;;;;;;;;;;;4.20;99.90;;;;;;5012633;28;20341;-73
2020/12/12 08:14:19;;;;;;;;;;;4.30;99.90;;;;;;5012820;28;20370;-74
2020/12/12 08:16:47;;;;;;;;;;;4.30;99.90;;;;;;5012281;28;19916;-75
2020/12/12 08:19:12;;;;;;;;;;;4.40;99.90;;;;;;5011352;28;19921;-73
2020/12/12 08:21:38;;;;;;;;;;;4.50;99.90;;;;;;5012602;28;20111;-73
2020/12/12 08:24:04;;;;;;;;;;;4.50;99.90;;;;;;5012793;28;20004;-74
2020/12/12 08:26:30;;;;;;;;;;;4.60;99.90;;;;;;5012781;28;20285;-73
2020/12/12 08:28:59;;;;;;;;;;;4.70;99.90;;;;;;5011160;28;19910;-73
2020/12/12 08:31:25;;;;;;;;;;;4.80;99.90;;;;;;5012326;28;19944;-74
2020/12/12 08:33:55;;;;;;;;;;;4.90;99.90;;;;;;5012200;28;19910;-73
2020/12/12 08:36:25;;;;;;;;;;;4.90;99.90;;;;;;5011819;28;20354;-76
2020/12/12 08:38:54;;;;;;;;;;;4.90;99.90;;;;;;5012333;28;19909;-74
2020/12/12 08:41:21;;;;;;;;;;;4.80;99.90;;;;;;5012167;28;19992;-74
2020/12/12 08:43:47;;;;;;;;;;;4.80;99.90;;;;;;5012239;28;20047;-74
2020/12/12 08:46:14;;;;;;;;;;;4.80;99.90;;;;;;5010481;28;20389;-73
2020/12/12 08:48:39;;;;;;;;;;;4.70;99.90;;;;;;5011836;28;19972;-73
2020/12/12 08:51:06;;;;;;;;;;;4.70;99.90;;;;;;5009906;28;19921;-74
2020/12/12 08:53:40;;;;;;;;;;;4.80;99.90;;;;;;5008709;28;19910;-75
2020/12/12 08:56:12;;;;;;;;;;;4.90;99.90;;;;;;5017436;28;20004;-75
2020/12/12 08:58:44;;;;;;;;;;;5.00;99.90;;;;;;5008755;28;20281;-75
2020/12/12 09:01:16;;;;;;;;;;;5.00;99.90;;;;;;5008540;28;20420;-74
2020/12/12 09:03:54;;;;;;;;;;;5.10;99.90;;;;;;5008361;28;19916;-75
2020/12/12 09:06:19;;;;;;;;;;;5.10;99.90;;;;;;5008750;28;19961;-73
2020/12/12 09:08:45;;;;;;;;;;;5.00;99.90;;;;;;5011853;28;19909;-73
2020/12/12 09:11:14;;;;;;;;;;;5.00;99.90;;;;;;5011870;28;20047;-73
2020/12/12 09:13:40;;;;;;;;;;;5.00;99.90;;;;;;5011486;28;19960;-76
2020/12/12 09:16:09;;;;;;;;;;;5.00;99.90;;;;;;5011452;28;19964;-73
2020/12/12 09:18:44;;;;;;;;;;;5.00;99.90;;;;;;5010530;28;19973;-74
2020/12/12 09:21:10;;;;;;;;;;;5.10;99.90;;;;;;5011826;28;19967;-73
2020/12/12 09:23:36;;;;;;;;;;;5.20;99.90;;;;;;5011706;28;19920;-74
2020/12/12 09:26:01;;;;;;;;;;;5.20;99.90;;;;;;5011815;28;19992;-74
2020/12/12 09:28:27;;;;;;;;;;;5.20;99.90;;;;;;5011649;28;19922;-73
2020/12/12 09:30:52;;;;;;;;;;;5.30;99.90;;;;;;5011469;28;19917;-75
2020/12/12 09:33:18;;;;;;;;;;;5.30;99.90;;;;;;5011533;28;20433;-73
2020/12/12 09:35:43;;;;;;;;;;;5.30;99.90;;;;;;5011189;28;19909;-74
2020/12/12 09:38:09;;;;;;;;;;;5.40;99.90;;;;;;5011567;28;20004;-73
2020/12/12 09:40:34;;;;;;;;;;;5.30;99.90;;;;;;5011327;28;19920;-76
2020/12/12 09:43:00;;;;;;;;;;;5.30;99.90;;;;;;5011928;28;19921;-74
2020/12/12 09:45:25;;;;;;;;;;;5.30;99.90;;;;;;5017753;28;20332;-74
2020/12/12 09:47:50;;;;;;;;;;;5.30;99.90;;;;;;5017601;28;19917;-76
2020/12/12 09:50:16;;;;;;;;;;;5.40;99.90;;;;;;5017826;28;19921;-73
2020/12/12 09:52:41;;;;;;;;;;;5.50;99.90;;;;;;5017897;28;20366;-74
2020/12/12 09:55:07;;;;;;;;;;;5.50;99.90;;;;;;5018477;28;19946;-74
2020/12/12 09:57:33;;;;;;;;;;;5.60;99.90;;;;;;5017418;28;19921;-74
2020/12/12 09:59:58;;;;;;;;;;;5.60;99.90;;;;;;5017732;28;20358;-74
2020/12/12 10:02:23;;;;;;;;;;;5.60;99.90;;;;;;5017887;28;19909;-74
2020/12/12 10:04:49;;;;;;;;;;;5.60;99.90;;;;;;5016559;28;19909;-76
2020/12/12 10:07:16;;;;;;;;;;;5.60;99.90;;;;;;5017500;28;20326;-74
2020/12/12 10:09:41;;;;;;;;;;;5.70;99.90;;;;;;5017724;28;19909;-74
2020/12/12 10:12:07;;;;;;;;;;;5.70;99.90;;;;;;5017647;28;19963;-75
2020/12/12 10:14:32;;;;;;;;;;;5.70;99.90;;;;;;5017729;28;19910;-74
2020/12/12 10:16:58;;;;;;;;;;;5.80;99.90;;;;;;5017093;28;19910;-74
2020/12/12 10:19:23;;;;;;;;;;;5.80;99.90;;;;;;5017379;28;19917;-76
2020/12/12 10:21:49;;;;;;;;;;;5.80;99.90;;;;;;5017597;28;19909;-74
2020/12/12 10:24:15;;;;;;;;;;;5.80;99.90;;;;;;5016924;28;19916;-74
2020/12/12 10:26:40;;;;;;;;;;;5.80;99.90;;;;;;5017043;28;19936;-74
2020/12/12 10:29:05;;;;;;;;;;;5.80;99.90;;;;;;5017438;28;19959;-74
2020/12/12 10:31:31;;;;;;;;;;;5.90;99.90;;;;;;5017486;28;19917;-75
2020/12/12 10:33:56;;;;;;;;;;;5.90;99.90;;;;;;5017518;28;20267;-74
2020/12/12 10:36:22;;;;;;;;;;;5.90;99.90;;;;;;5017157;28;19910;-74
2020/12/12 10:38:48;;;;;;;;;;;5.90;99.90;;;;;;5017385;28;19910;-74
2020/12/12 10:41:14;;;;;;;;;;;5.80;99.90;;;;;;5017395;28;19913;-74
2020/12/12 10:43:39;;;;;;;;;;;5.80;99.90;;;;;;5017277;28;19913;-74
2020/12/12 10:46:06;;;;;;;;;;;5.90;99.90;;;;;;5015812;28;19909;-74
2020/12/12 10:48:31;;;;;;;;;;;5.80;99.90;;;;;;5017512;28;19963;-75
2020/12/12 10:50:57;;;;;;;;;;;5.90;99.90;;;;;;5016142;28;20317;-75
2020/12/12 10:53:22;;;;;;;;;;;5.90;99.90;;;;;;5017200;28;19909;-74
2020/12/12 10:55:48;;;;;;;;;;;6.00;99.90;;;;;;5014381;28;19909;-75
2020/12/12 10:58:13;;;;;;;;;;;6.00;99.90;;;;;;5014065;28;19909;-75
2020/12/12 11:00:43;;;;;;;;;;;6.00;99.90;;;;;;5014319;28;20476;-75
2020/12/12 11:03:08;;;;;;;;;;;5.90;99.90;;;;;;5014149;28;19909;-75
2020/12/12 11:05:34;;;;;;;;;;;6.00;99.90;;;;;;5014128;28;19909;-75
2020/12/12 11:08:00;;;;;;;;;;;6.00;99.90;;;;;;5014023;28;19914;-75
2020/12/12 11:10:25;;;;;;;;;;;6.00;99.90;;;;;;5014561;28;19968;-75
2020/12/12 11:12:51;;;;;;;;;;;6.10;99.90;;;;;;5014062;28;19910;-75
2020/12/12 11:15:16;;;;;;;;;;;6.10;99.90;;;;;;5012965;28;20366;-75
2020/12/12 11:17:42;;;;;;;;;;;6.10;99.90;;;;;;5013838;28;19933;-75
2020/12/12 11:20:07;;;;;;;;;;;6.10;99.90;;;;;;5013989;28;20400;-75
2020/12/12 11:22:33;;;;;;;;;;;6.10;99.90;;;;;;5013800;28;19910;-75
2020/12/12 11:24:58;;;;;;;;;;;6.10;99.90;;;;;;5014704;28;19921;-75
2020/12/12 11:27:24;;;;;;;;;;;6.10;99.90;;;;;;5013332;28;20398;-75
2020/12/12 11:29:51;;;;;;;;;;;6.10;99.90;;;;;;5013952;28;19953;-75
2020/12/12 11:32:17;;;;;;;;;;;6.20;99.90;;;;;;5013921;28;19913;-75
2020/12/12 11:34:46;;;;;;;;;;;6.10;99.90;;;;;;5013875;28;19932;-75
2020/12/12 11:47:40;;;;;;;;;;;6.20;99.90;;;;;;5013219;28;20000;-75
2020/12/12 11:50:05;;;;;;;;;;;6.20;99.90;;;;;;5012239;28;20011;-75
2020/12/12 11:52:35;;;;;;;;;;;6.30;99.90;;;;;;5013459;28;19981;-75
2020/12/12 11:55:00;;;;;;;;;;;6.30;99.90;;;;;;5014128;28;19909;-75
2020/12/12 11:57:26;;;;;;;;;;;6.30;99.90;;;;;;5011567;28;19920;-74
2020/12/12 11:59:51;;;;;;;;;;;6.30;99.90;;;;;;5013345;28;19959;-75
2020/12/12 12:02:17;;;;;;;;;;;6.30;99.90;;;;;;5012969;28;19916;-75
2020/12/12 12:04:42;;;;;;;;;;;6.30;99.90;;;;;;5013270;28;19910;-75
2020/12/12 12:07:08;;;;;;;;;;;6.30;99.90;;;;;;5012370;28;19956;-75
2020/12/12 12:09:43;;;;;;;;;;;6.40;99.90;;;;;;5013263;28;19913;-75
2020/12/12 12:12:08;;;;;;;;;;;6.40;99.90;;;;;;5013019;28;19909;-75
2020/12/12 12:14:34;;;;;;;;;;;6.40;99.90;;;;;;5013579;28;20401;-75
2020/12/12 12:17:00;;;;;;;;;;;6.40;99.90;;;;;;5012495;28;19956;-75
2020/12/12 12:19:25;;;;;;;;;;;6.40;99.90;;;;;;5012926;28;20281;-75
2020/12/12 12:21:51;;;;;;;;;;;6.40;99.90;;;;;;5013057;28;19910;-75
2020/12/12 12:24:17;;;;;;;;;;;6.40;99.90;;;;;;5013624;28;19929;-75
2020/12/12 12:26:44;;;;;;;;;;;6.40;99.90;;;;;;5012317;28;19916;-75
2020/12/12 12:29:12;;;;;;;;;;;6.40;99.90;;;;;;5011521;28;19955;-75
2020/12/12 12:31:38;;;;;;;;;;;6.40;99.90;;;;;;5012652;28;20437;-75
2020/12/12 12:34:04;;;;;;;;;;;6.40;99.90;;;;;;5012707;28;20285;-75
2020/12/12 12:36:30;;;;;;;;;;;6.40;99.90;;;;;;5012371;28;19909;-75
2020/12/12 12:38:57;;;;;;;;;;;6.40;99.90;;;;;;5012719;28;20319;-75
2020/12/12 12:41:23;;;;;;;;;;;6.40;99.90;;;;;;5012548;28;20222;-75
2020/12/12 12:43:51;;;;;;;;;;;6.50;99.90;;;;;;5012432;28;19953;-75
2020/12/12 12:46:17;;;;;;;;;;;6.50;99.90;;;;;;5012005;28;19917;-75
2020/12/12 12:48:43;;;;;;;;;;;6.40;99.90;;;;;;5011063;28;19924;-76
2020/12/12 12:51:08;;;;;;;;;;;6.50;99.90;;;;;;5012419;28;20361;-75
2020/12/12 12:53:34;;;;;;;;;;;6.50;99.90;;;;;;5012389;28;19996;-75
2020/12/12 12:55:59;;;;;;;;;;;6.50;99.90;;;;;;5012552;28;19909;-75
2020/12/12 12:58:26;;;;;;;;;;;6.60;99.90;;;;;;5012184;28;19996;-75
2020/12/12 13:00:52;;;;;;;;;;;6.60;99.90;;;;;;5010925;28;19925;-75
2020/12/12 13:03:17;;;;;;;;;;;6.60;99.90;;;;;;5012094;28;20302;-75
2020/12/12 13:05:44;;;;;;;;;;;6.70;99.90;;;;;;5011896;28;19910;-74
2020/12/12 13:08:09;;;;;;;;;;;6.70;99.90;;;;;;5012165;28;19909;-75
2020/12/12 13:10:35;;;;;;;;;;;6.70;99.90;;;;;;5012055;28;19916;-74
2020/12/12 13:13:00;;;;;;;;;;;6.70;99.90;;;;;;5011942;28;19952;-75
2020/12/12 13:15:27;;;;;;;;;;;6.70;99.90;;;;;;5011914;28;20008;-75
2020/12/12 13:17:53;;;;;;;;;;;6.80;99.90;;;;;;5011236;28;19910;-75
2020/12/12 13:20:35;;;;;;;;;;;6.80;99.90;;;;;;5010361;28;20255;-74
2020/12/12 13:23:00;;;;;;;;;;;6.80;99.90;;;;;;5011820;28;20385;-75
2020/12/12 13:25:26;;;;;;;;;;;6.80;99.90;;;;;;5014084;28;19910;-75
2020/12/12 13:28:01;;;;;;;;;;;6.90;99.90;;;;;;5031023;28;19914;-75
2020/12/12 13:30:35;;;;;;;;;;;6.90;99.90;;;;;;5031500;28;20004;-74
2020/12/12 13:33:00;;;;;;;;;;;6.80;99.90;;;;;;5031389;28;20285;-75
2020/12/12 13:35:26;;;;;;;;;;;6.90;99.90;;;;;;5030105;28;19910;-75
2020/12/12 13:37:51;;;;;;;;;;;6.80;99.90;;;;;;5031231;28;19948;-75
2020/12/12 13:40:16;;;;;;;;;;;6.80;99.90;;;;;;5031164;28;19917;-75
2020/12/12 13:42:42;;;;;;;;;;;6.80;99.90;;;;;;5030076;28;19909;-75
2020/12/12 13:45:07;;;;;;;;;;;6.80;99.90;;;;;;5031379;28;20314;-75
2020/12/12 13:47:34;;;;;;;;;;;6.80;99.90;;;;;;5029215;28;20236;-75
2020/12/12 13:50:00;;;;;;;;;;;6.80;99.90;;;;;;5031326;28;20289;-75
2020/12/12 13:52:25;;;;;;;;;;;6.80;99.90;;;;;;5031204;28;19944;-75
2020/12/12 13:54:51;;;;;;;;;;;6.80;99.90;;;;;;5026188;28;20329;-74
2020/12/12 13:57:16;;;;;;;;;;;6.80;99.90;;;;;;5010871;28;19964;-75
2020/12/12 13:59:42;;;;;;;;;;;6.80;99.90;;;;;;5011537;28;19914;-75
2020/12/12 14:02:08;;;;;;;;;;;6.80;99.90;;;;;;5011439;28;19909;-75
2020/12/12 14:04:34;;;;;;;;;;;6.80;99.90;;;;;;5010297;28;20263;-74
2020/12/12 14:07:06;;;;;;;;;;;6.80;99.90;;;;;;5011016;28;19910;-75
2020/12/12 14:25:09;;;;;;;;;;;6.80;99.90;;;;;;5012077;28;19913;-75
2020/12/12 14:30:20;;;;;;;;;;;6.80;99.90;;;;;;5012900;28;20017;-75
2020/12/12 14:32:46;;;;;;;;;;;6.80;99.90;;;;;;5014763;28;19952;-74
2020/12/12 14:35:11;;;;;;;;;;;6.80;99.90;;;;;;5014716;28;20457;-75
2020/12/12 14:37:37;;;;;;;;;;;6.80;99.90;;;;;;5014398;28;20001;-75
2020/12/12 14:40:02;;;;;;;;;;;6.80;99.90;;;;;;5014715;28;20362;-75
2020/12/12 14:42:29;;;;;;;;;;;6.80;99.90;;;;;;5015136;28;19909;-75
2020/12/12 14:44:54;;;;;;;;;;;6.80;99.90;;;;;;5014627;28;19909;-75
2020/12/12 14:47:22;;;;;;;;;;;6.80;99.90;;;;;;5013019;28;19909;-75
2020/12/12 14:49:48;;;;;;;;;;;6.80;99.90;;;;;;5014550;28;19917;-74
2020/12/12 14:52:13;;;;;;;;;;;6.80;99.90;;;;;;5014693;28;19917;-75
2020/12/12 14:54:39;;;;;;;;;;;6.80;99.90;;;;;;5015135;28;19909;-75